Time;durP1;ratioP1;P1;durP2;ratioP2;P2;SDS_P1;SDS_P2;PMS_P1;PMS_P2;Temp;Humidity;BMP_temperature;BMP_pressure;BME280_temperature;BME280_humidity;BME280_pressure;Samples;Min_cycle;Max_cycle;Signal;HPM_P1;HPM_P2
2022/12/20 00:02:07;;;;;;;8.17;5.10;;;;;;;-145.18;100.00;46728.75;5029312;28;20520;-76
2022/12/20 00:04:33;;;;;;;6.50;4.70;;;;;;;-145.18;100.00;46728.75;5029358;28;20106;-76
2022/12/20 00:06:58;;;;;;;5.67;3.87;;;;;;;-145.18;100.00;46726.81;5029370;28;20037;-76
2022/12/20 00:09:24;;;;;;;6.83;4.13;;;;;;;-145.18;100.00;46738.53;5029470;28;20429;-76
2022/12/20 00:11:50;;;;;;;7.67;3.93;;;;;;;-145.18;100.00;46726.81;5011333;28;20160;-76
2022/12/20 00:14:16;;;;;;;7.90;4.93;;;;;;;-145.18;100.00;46740.47;5029492;28;20041;-76
2022/12/20 00:16:41;;;;;;;8.27;3.90;;;;;;;-145.18;100.00;46734.63;5029161;28;20068;-76
2022/12/20 00:19:10;;;;;;;8.10;3.97;;;;;;;-145.18;100.00;46732.66;5028999;28;20783;-76
2022/12/20 00:21:37;;;;;;;5.87;4.07;;;;;;;-145.18;100.00;46732.66;5029258;28;20036;-76
2022/12/20 00:24:03;;;;;;;7.63;4.37;;;;;;;-145.18;100.00;46732.66;5029156;28;20278;-76
2022/12/20 00:26:31;;;;;;;10.37;4.17;;;;;;;-145.18;100.00;46732.66;5029360;28;20845;-76
2022/12/20 00:28:57;;;;;;;8.70;4.33;;;;;;;-145.18;100.00;46736.56;5028929;28;20270;-76
2022/12/20 00:31:24;;;;;;;12.43;4.53;;;;;;;-145.18;100.00;46734.63;5028874;28;20378;-76
2022/12/20 00:33:51;;;;;;;5.37;3.83;;;;;;;-145.18;100.00;46734.63;5029084;28;20079;-76
2022/12/20 00:36:18;;;;;;;8.13;3.93;;;;;;;-145.18;100.00;46740.47;5028894;28;20275;-76
2022/12/20 00:38:45;;;;;;;7.20;3.60;;;;;;;-145.18;100.00;46742.44;5029037;28;20286;-76
2022/12/20 00:41:16;;;;;;;7.03;4.17;;;;;;;-145.18;100.00;46740.47;5009038;28;20336;-76
2022/12/20 00:43:41;;;;;;;9.33;3.80;;;;;;;-145.18;100.00;46740.47;5029254;28;20281;-76
2022/12/20 00:46:09;;;;;;;5.77;3.63;;;;;;;-145.18;100.00;46736.56;5028783;28;20779;-76
2022/12/20 00:48:35;;;;;;;8.13;3.80;;;;;;;-145.18;100.00;46744.38;5028719;28;20048;-76
2022/12/20 00:51:11;;;;;;;6.67;3.70;;;;;;;-145.18;100.00;46740.47;5029170;28;20282;-76
2022/12/20 00:53:38;;;;;;;6.63;3.73;;;;;;;-145.18;100.00;46744.38;5028996;28;20029;-76
2022/12/20 00:56:05;;;;;;;10.63;3.87;;;;;;;-145.18;100.00;46736.56;5029018;28;20775;-76
2022/12/20 00:58:38;;;;;;;7.83;3.27;;;;;;;-145.18;100.00;46740.47;5028698;28;20302;-77
2022/12/20 01:01:05;;;;;;;9.77;4.47;;;;;;;-145.18;100.00;46736.56;5028397;28;20349;-78
2022/12/20 01:03:31;;;;;;;8.07;3.40;;;;;;;-145.18;100.00;46734.63;5026063;28;20377;-76
2022/12/20 01:05:58;;;;;;;6.13;3.33;;;;;;;-145.18;100.00;46738.53;5028714;28;20366;-78
2022/12/20 01:08:25;;;;;;;9.13;3.73;;;;;;;-145.18;100.00;46738.53;5028538;28;20646;-78
2022/12/20 01:11:05;;;;;;;5.60;3.50;;;;;;;-145.18;100.00;46736.56;5028926;28;20310;-78
2022/12/20 01:13:32;;;;;;;5.77;3.10;;;;;;;-145.18;100.00;46732.66;5028653;28;20273;-77
2022/12/20 01:16:16;;;;;;;7.67;3.57;;;;;;;-145.18;100.00;46732.66;5028485;28;20274;-77
2022/12/20 01:18:42;;;;;;;9.83;4.00;;;;;;;-145.18;100.00;46726.81;5028409;28;22166;-77
2022/12/20 01:21:11;;;;;;;5.50;3.23;;;;;;;-145.18;100.00;46724.84;5026057;28;20285;-78
2022/12/20 01:23:36;;;;;;;6.37;4.07;;;;;;;-145.18;100.00;46724.84;5028766;28;20783;-78
2022/12/20 01:26:04;;;;;;;12.07;4.10;;;;;;;-145.18;100.00;46722.91;5028256;28;20310;-78
2022/12/20 01:28:31;;;;;;;7.93;4.00;;;;;;;-145.18;100.00;46726.81;5031433;28;20037;-78
2022/12/20 01:30:56;;;;;;;7.27;3.90;;;;;;;-145.18;100.00;46719.00;5032550;28;20336;-78
2022/12/20 01:33:22;;;;;;;11.80;3.97;;;;;;;-145.18;100.00;46722.91;5032604;28;20678;-78
2022/12/20 01:35:59;;;;;;;8.43;4.07;;;;;;;-145.18;100.00;46720.94;5032555;28;20449;-77
2022/12/20 01:38:25;;;;;;;10.83;4.30;;;;;;;-145.18;100.00;46724.84;5029511;28;20566;-77
2022/12/20 01:40:51;;;;;;;5.90;4.10;;;;;;;-145.18;100.00;46713.13;5032361;28;20266;-77
2022/12/20 01:43:17;;;;;;;8.83;4.23;;;;;;;-145.18;100.00;46720.94;5032332;28;20281;-77
2022/12/20 01:45:43;;;;;;;8.47;3.90;;;;;;;-145.18;100.00;46726.81;5032315;28;20079;-77
2022/12/20 01:48:10;;;;;;;13.87;5.10;;;;;;;-145.18;100.00;46711.19;5031641;28;20733;-77
2022/12/20 01:50:36;;;;;;;9.17;4.50;;;;;;;-145.18;100.00;46722.91;5011960;28;20029;-77
2022/12/20 01:53:04;;;;;;;9.00;5.03;;;;;;;-145.18;100.00;46711.19;5032163;28;20755;-77
2022/12/20 01:55:30;;;;;;;7.03;4.53;;;;;;;-145.18;100.00;46717.03;5032376;28;20025;-77
2022/12/20 01:58:03;;;;;;;10.57;4.70;;;;;;;-145.18;100.00;46705.31;5031881;28;20275;-77
2022/12/20 02:00:29;;;;;;;10.17;4.87;;;;;;;-145.18;100.00;46699.47;5030935;28;20263;-77
2022/12/20 02:02:58;;;;;;;12.00;5.60;;;;;;;-145.18;100.00;46705.31;5031697;28;20293;-77
2022/12/20 02:05:23;;;;;;;11.03;5.53;;;;;;;-145.18;100.00;46717.03;5031456;28;20098;-77
2022/12/20 02:07:52;;;;;;;8.63;5.10;;;;;;;-145.18;100.00;46711.19;5031594;28;20287;-77
2022/12/20 02:10:21;;;;;;;10.37;4.67;;;;;;;-145.18;100.00;46705.31;5029172;28;20041;-77
2022/12/20 02:12:47;;;;;;;13.30;5.07;;;;;;;-145.18;100.00;46707.28;5030078;28;20279;-77
2022/12/20 02:15:46;;;;;;;9.97;4.87;;;;;;;-145.18;100.00;46699.47;5031531;28;20294;-77
2022/12/20 02:18:24;;;;;;;9.77;4.50;;;;;;;-145.18;100.00;46697.50;5029973;28;20044;-77
2022/12/20 02:21:11;;;;;;;8.80;5.00;;;;;;;-145.18;100.00;46709.22;5031292;28;20643;-77
2022/12/20 02:23:58;;;;;;;7.10;4.80;;;;;;;-145.18;100.00;46699.47;5031574;28;20277;-77
2022/12/20 02:26:42;;;;;;;7.70;4.37;;;;;;;-145.18;100.00;46715.09;5030523;28;20876;-76
2022/12/20 02:29:30;;;;;;;8.10;4.67;;;;;;;-145.18;100.00;46707.28;5031080;28;20301;-77
2022/12/20 02:32:13;;;;;;;10.93;4.63;;;;;;;-145.18;100.00;46703.38;5030517;28;20695;-77
2022/12/20 02:34:41;;;;;;;8.43;4.40;;;;;;;-145.18;100.00;46707.28;5031305;28;20283;-76
2022/12/20 02:37:06;;;;;;;9.47;4.83;;;;;;;-145.18;100.00;46695.56;5030878;28;20379;-77
2022/12/20 02:39:34;;;;;;;9.27;4.83;;;;;;;-145.18;100.00;46699.47;5029865;28;20349;-77
2022/12/20 02:42:13;;;;;;;11.70;4.30;;;;;;;-145.18;100.00;46709.22;5031062;28;20132;-78
2022/12/20 02:47:38;;;;;;;8.73;4.73;;;;;;;-145.18;100.00;46703.38;5028425;28;20374;-78
2022/12/20 02:50:06;;;;;;;8.87;4.37;;;;;;;-145.18;100.00;46703.38;5030690;28;20282;-77
2022/12/20 02:52:32;;;;;;;9.00;4.20;;;;;;;-145.18;100.00;46709.22;5030695;28;20321;-78
2022/12/20 02:54:59;;;;;;;6.77;4.07;;;;;;;-145.18;100.00;46709.22;5011125;28;20286;-78
2022/12/20 02:57:35;;;;;;;8.30;4.87;;;;;;;-145.18;100.00;46703.38;5030434;28;20655;-78
2022/12/20 03:05:43;;;;;;;5.82;3.72;;;;;;;-145.18;100.00;46715.09;5030882;28;20349;-78
2022/12/20 03:08:08;;;;;;;15.80;4.47;;;;;;;-145.18;100.00;46705.31;5030861;28;20473;-79
2022/12/20 03:10:33;;;;;;;7.33;4.47;;;;;;;-145.18;100.00;46711.19;4997508;28;20283;-79
2022/12/20 03:12:59;;;;;;;6.17;4.13;;;;;;;-145.18;100.00;46703.38;5031071;28;20041;-79
2022/12/20 03:15:24;;;;;;;7.47;4.30;;;;;;;-145.18;100.00;46705.31;5032192;28;20561;-79
2022/12/20 03:17:50;;;;;;;5.83;4.20;;;;;;;-145.18;100.00;46713.13;5031697;28;20037;-77
2022/12/20 03:20:15;;;;;;;10.40;5.43;;;;;;;-145.18;100.00;46703.38;5031584;28;20091;-77
2022/12/20 03:22:40;;;;;;;9.13;4.60;;;;;;;-145.18;100.00;46709.22;5030460;28;20036;-77
2022/12/20 03:25:06;;;;;;;7.03;4.30;;;;;;;-145.18;100.00;46711.19;5030962;28;20057;-76
2022/12/20 03:27:32;;;;;;;8.73;4.30;;;;;;;-145.18;100.00;46715.09;5031309;28;20124;-76
2022/12/20 03:29:58;;;;;;;11.67;5.47;;;;;;;-145.18;100.00;46711.19;5031554;28;20543;-76
2022/12/20 03:32:23;;;;;;;8.63;4.53;;;;;;;-145.18;100.00;46719.00;5013559;28;20274;-76
2022/12/20 03:34:49;;;;;;;7.63;4.63;;;;;;;-145.18;100.00;46705.31;5031564;28;20033;-76
2022/12/20 03:37:15;;;;;;;7.33;4.80;;;;;;;-145.18;100.00;46719.00;5030985;28;20465;-76
2022/12/20 03:39:40;;;;;;;9.13;4.17;;;;;;;-145.18;100.00;46709.22;5013778;28;20026;-76
2022/12/20 03:42:06;;;;;;;7.70;4.13;;;;;;;-145.18;100.00;46709.22;5031081;28;20325;-77
2022/12/20 03:44:31;;;;;;;9.13;3.93;;;;;;;-145.18;100.00;46711.19;5031061;28;20452;-76
2022/12/20 03:46:56;;;;;;;6.63;3.87;;;;;;;-145.18;100.00;46709.22;5030397;28;20053;-77
2022/12/20 03:49:22;;;;;;;11.37;5.07;;;;;;;-145.18;100.00;46715.09;5013547;28;20032;-77
2022/12/20 03:51:47;;;;;;;6.63;3.70;;;;;;;-145.18;100.00;46717.03;5030784;28;20092;-77
2022/12/20 03:54:13;;;;;;;7.33;4.03;;;;;;;-145.18;100.00;46701.41;5030509;28;20411;-76
2022/12/20 03:56:38;;;;;;;8.50;4.17;;;;;;;-145.18;100.00;46705.31;5030849;28;20068;-76
2022/12/20 03:59:03;;;;;;;11.07;3.90;;;;;;;-145.18;100.00;46709.22;5030519;28;20072;-76
2022/12/20 04:01:29;;;;;;;12.07;3.73;;;;;;;-145.18;100.00;46719.00;5031084;28;20041;-77
2022/12/20 04:03:55;;;;;;;8.27;3.80;;;;;;;-145.18;100.00;46717.03;5015429;28;20062;-77
2022/12/20 04:06:22;;;;;;;6.23;3.90;;;;;;;-145.18;100.00;46717.03;5011216;28;20042;-76
2022/12/20 04:08:48;;;;;;;11.33;4.17;;;;;;;-145.18;100.00;46715.09;5010677;28;20275;-76
2022/12/20 04:11:17;;;;;;;6.17;3.50;;;;;;;-145.18;100.00;46717.03;5010937;28;20333;-76
2022/12/20 04:13:43;;;;;;;8.03;3.87;;;;;;;-145.18;100.00;46717.03;5023410;28;20759;-77
2022/12/20 04:16:10;;;;;;;5.80;3.77;;;;;;;-145.18;100.00;46717.03;5030657;28;20277;-77
2022/12/20 04:18:35;;;;;;;5.70;3.43;;;;;;;-145.18;100.00;46715.09;5030279;28;20458;-77
2022/12/20 04:21:02;;;;;;;5.83;3.53;;;;;;;-145.18;100.00;46717.03;5030354;28;20087;-77
2022/12/20 04:23:27;;;;;;;9.20;4.00;;;;;;;-145.18;100.00;46719.00;5017076;28;20034;-76
2022/12/20 04:25:52;;;;;;;9.53;3.43;;;;;;;-145.18;100.00;46719.00;5010452;28;20299;-76
2022/12/20 04:28:18;;;;;;;6.03;3.33;;;;;;;-145.18;100.00;46707.28;5010683;28;20042;-75
2022/12/20 04:30:43;;;;;;;7.80;4.30;;;;;;;-145.18;100.00;46717.03;5010754;28;20046;-76
2022/12/20 04:33:08;;;;;;;8.40;3.97;;;;;;;-145.18;100.00;46719.00;5020169;28;20041;-75
2022/12/20 04:35:35;;;;;;;5.73;3.40;;;;;;;-145.18;100.00;46715.09;5030294;28;20041;-76
2022/12/20 04:38:00;;;;;;;7.27;4.47;;;;;;;-145.18;100.00;46715.09;5029987;28;20026;-76
2022/12/20 04:40:25;;;;;;;9.13;4.43;;;;;;;-145.18;100.00;46699.47;5028327;28;20087;-75
2022/12/20 04:42:51;;;;;;;10.50;3.90;;;;;;;-145.18;100.00;46713.13;5017359;28;20076;-75
2022/12/20 04:45:16;;;;;;;7.17;4.40;;;;;;;-145.18;100.00;46703.38;5029568;28;20076;-75
2022/12/20 04:47:41;;;;;;;8.37;4.37;;;;;;;-145.18;100.00;46697.50;5012223;28;20071;-75
2022/12/20 04:50:07;;;;;;;8.30;5.03;;;;;;;-145.18;100.00;46703.38;5030119;28;20044;-74
2022/12/20 04:55:16;;;;;;;7.20;4.17;;;;;;;-145.18;100.00;46703.38;5010717;28;20048;-75
2022/12/20 04:57:41;;;;;;;8.23;4.13;;;;;;;-145.18;100.00;46705.31;4992334;28;20295;-76
2022/12/20 05:00:07;;;;;;;7.90;4.30;;;;;;;-145.18;100.00;46703.38;5009372;28;20038;-75
2022/12/20 05:02:33;;;;;;;7.00;4.67;;;;;;;-145.18;100.00;46703.38;5016385;28;20099;-77
2022/12/20 05:04:58;;;;;;;9.37;4.50;;;;;;;-145.18;100.00;46703.38;5018490;28;20271;-77
2022/12/20 05:07:23;;;;;;;8.30;4.60;;;;;;;-145.18;100.00;46705.31;5017477;28;20069;-75
2022/12/20 05:09:49;;;;;;;7.50;4.40;;;;;;;-145.18;100.00;46707.28;5020216;28;20033;-75
2022/12/20 05:12:14;;;;;;;5.27;4.27;;;;;;;-145.18;100.00;46695.56;5017059;28;20034;-75
2022/12/20 05:14:39;;;;;;;8.20;4.23;;;;;;;-145.18;100.00;46697.50;5000150;28;20022;-75
2022/12/20 05:17:05;;;;;;;8.47;4.63;;;;;;;-145.18;100.00;46695.56;4992575;28;20042;-75
2022/12/20 05:19:30;;;;;;;8.70;4.40;;;;;;;-145.18;100.00;46699.47;5021091;28;20029;-75
2022/12/20 05:27:23;;;;;;;8.27;5.03;;;;;;;-145.18;100.00;46693.59;5027277;28;20285;-76
2022/12/20 05:29:49;;;;;;;9.93;4.73;;;;;;;-145.18;100.00;46695.56;5010796;28;20719;-77
2022/12/20 05:32:14;;;;;;;7.23;4.47;;;;;;;-145.18;100.00;46699.47;5019093;28;20053;-76
2022/12/20 05:34:40;;;;;;;9.47;5.10;;;;;;;-145.18;100.00;46695.56;5018542;28;20041;-76
2022/12/20 05:37:05;;;;;;;8.23;4.63;;;;;;;-145.18;100.00;46691.66;5029477;28;20352;-76
2022/12/20 05:39:31;;;;;;;8.40;4.37;;;;;;;-145.18;100.00;46695.56;5029179;28;20061;-76
2022/12/20 05:41:56;;;;;;;7.23;4.50;;;;;;;-145.18;100.00;46695.56;5029149;28;20038;-76
2022/12/20 05:44:21;;;;;;;7.60;4.00;;;;;;;-145.18;100.00;46695.56;5016594;28;20079;-76
2022/12/20 05:46:47;;;;;;;11.23;4.67;;;;;;;-145.18;100.00;46699.47;5029272;28;20051;-76
2022/12/20 05:49:12;;;;;;;6.17;4.00;;;;;;;-145.18;100.00;46695.56;5029026;28;20077;-76
2022/12/20 05:51:37;;;;;;;9.00;5.50;;;;;;;-145.18;100.00;46703.38;5029268;28;20068;-76
2022/12/20 05:54:03;;;;;;;7.73;4.10;;;;;;;-145.18;100.00;46693.59;5015704;28;20067;-75
2022/12/20 05:56:28;;;;;;;6.90;4.10;;;;;;;-145.18;100.00;46705.31;5029114;28;20540;-75
2022/12/20 05:58:53;;;;;;;7.17;3.83;;;;;;;-145.18;100.00;46699.47;5022756;28;20486;-76
2022/12/20 06:01:19;;;;;;;7.67;3.73;;;;;;;-145.18;100.00;46703.38;5017295;28;20418;-75
2022/12/20 06:03:44;;;;;;;5.70;3.90;;;;;;;-145.18;100.00;46709.22;5019146;28;20049;-75
2022/12/20 06:06:10;;;;;;;5.87;3.50;;;;;;;-145.18;100.00;46693.59;5011686;28;20050;-75
2022/12/20 06:08:35;;;;;;;6.30;3.53;;;;;;;-145.18;100.00;46711.19;5009686;28;20033;-76
2022/12/20 06:11:03;;;;;;;12.53;3.43;;;;;;;-145.18;100.00;46705.31;5009352;28;20069;-75
2022/12/20 06:13:29;;;;;;;6.67;3.27;;;;;;;-145.18;100.00;46703.38;5022170;28;20029;-77
2022/12/20 06:15:54;;;;;;;9.23;3.80;;;;;;;-145.18;100.00;46707.28;5027626;28;20328;-77
2022/12/20 06:18:20;;;;;;;6.73;2.83;;;;;;;-145.18;100.00;46717.03;5015792;28;20041;-77
2022/12/20 06:20:52;;;;;;;5.40;2.97;;;;;;;-145.18;100.00;46719.00;5015934;28;20045;-77
2022/12/20 06:23:19;;;;;;;6.50;3.10;;;;;;;-145.18;100.00;46703.38;5019577;28;20038;-77
2022/12/20 06:25:45;;;;;;;5.43;2.90;;;;;;;-145.18;100.00;46719.00;5019822;28;20029;-77
2022/12/20 06:28:10;;;;;;;3.53;2.47;;;;;;;-145.18;100.00;46719.00;5027992;28;20041;-77
2022/12/20 06:30:35;;;;;;;6.00;3.20;;;;;;;-145.18;100.00;46719.00;5029646;28;20042;-77
2022/12/20 06:33:02;;;;;;;5.03;2.87;;;;;;;-145.18;100.00;46715.09;5020886;28;20069;-77
2022/12/20 06:35:28;;;;;;;4.93;2.97;;;;;;;-145.18;100.00;46719.00;5021860;28;20490;-77
2022/12/20 06:37:53;;;;;;;6.90;2.77;;;;;;;-145.18;100.00;46720.94;5012385;28;20056;-77
2022/12/20 06:40:19;;;;;;;7.47;2.80;;;;;;;-145.18;100.00;46719.00;5027065;28;20437;-77
2022/12/20 06:42:44;;;;;;;6.60;2.70;;;;;;;-145.18;100.00;46719.00;5016619;28;20037;-77
2022/12/20 06:45:10;;;;;;;5.97;2.70;;;;;;;-145.18;100.00;46722.91;5018491;28;20490;-77
2022/12/20 06:47:36;;;;;;;5.40;2.97;;;;;;;-145.18;100.00;46719.00;5025158;28;20036;-77
2022/12/20 06:50:02;;;;;;;4.57;2.70;;;;;;;-145.18;100.00;46722.91;5019021;28;20033;-77
2022/12/20 06:52:27;;;;;;;7.80;2.90;;;;;;;-145.18;100.00;46722.91;5014950;28;20049;-77
2022/12/20 06:54:53;;;;;;;5.60;2.57;;;;;;;-145.18;100.00;46720.94;5014156;28;20037;-77
2022/12/20 06:57:18;;;;;;;5.83;2.33;;;;;;;-145.18;100.00;46724.84;5027325;28;20187;-77
2022/12/20 06:59:44;;;;;;;6.17;2.70;;;;;;;-145.18;100.00;46724.84;5018311;28;20043;-78
2022/12/20 07:02:10;;;;;;;4.97;2.40;;;;;;;-145.18;100.00;46722.91;5015581;28;20058;-77
2022/12/20 07:04:36;;;;;;;8.90;2.83;;;;;;;-145.18;100.00;46722.91;5021167;28;20034;-77
2022/12/20 07:07:02;;;;;;;10.90;2.63;;;;;;;-145.18;100.00;46724.84;5023488;28;20041;-77
2022/12/20 07:09:28;;;;;;;5.20;3.07;;;;;;;-145.18;100.00;46722.91;5020568;28;20040;-77
2022/12/20 07:11:54;;;;;;;5.33;2.47;;;;;;;-145.18;100.00;46728.75;5018196;28;20029;-77
2022/12/20 07:14:19;;;;;;;7.30;2.80;;;;;;;-145.18;100.00;46726.81;5016468;28;20068;-77
2022/12/20 07:16:45;;;;;;;3.73;2.50;;;;;;;-145.18;100.00;46726.81;5012644;28;20042;-77
2022/12/20 07:19:11;;;;;;;6.77;2.80;;;;;;;-145.18;100.00;46728.75;5018174;28;20069;-77
2022/12/20 07:21:37;;;;;;;6.63;2.80;;;;;;;-145.18;100.00;46726.81;5028055;28;20137;-78
2022/12/20 07:24:03;;;;;;;4.30;2.50;;;;;;;-145.18;100.00;46728.75;5025873;28;20529;-77
2022/12/20 07:26:28;;;;;;;8.40;2.63;;;;;;;-145.18;100.00;46728.75;5015353;28;20041;-78
2022/12/20 07:28:54;;;;;;;7.07;3.33;;;;;;;-145.18;100.00;46728.75;5019493;28;20120;-77
2022/12/20 07:31:19;;;;;;;6.40;3.07;;;;;;;-145.18;100.00;46734.63;5022360;28;20092;-77
2022/12/20 07:33:44;;;;;;;6.93;2.40;;;;;;;-145.18;100.00;46732.66;5020726;28;20042;-77
2022/12/20 07:36:12;;;;;;;4.23;3.00;;;;;;;-145.18;100.00;46728.75;5016484;28;20053;-77
2022/12/20 07:38:38;;;;;;;3.90;2.83;;;;;;;-145.18;100.00;46734.63;5012157;28;20038;-77
2022/12/20 07:41:08;;;;;;;7.97;3.10;;;;;;;-145.18;100.00;46734.63;5015411;28;20041;-77
2022/12/20 07:43:34;;;;;;;6.10;3.07;;;;;;;-145.18;100.00;46728.75;5023441;28;20037;-77
2022/12/20 07:45:59;;;;;;;7.70;3.97;;;;;;;-145.18;100.00;46734.63;5016471;28;20413;-78
2022/12/20 07:48:24;;;;;;;5.23;2.93;;;;;;;-145.18;100.00;46726.81;5017913;28;20037;-78
2022/12/20 07:50:58;;;;;;;4.67;2.67;;;;;;;-145.18;100.00;46732.66;5018070;28;20042;-76
2022/12/20 07:53:25;;;;;;;7.03;2.87;;;;;;;-145.18;100.00;46728.75;5013813;28;20030;-77
2022/12/20 07:55:52;;;;;;;9.00;3.57;;;;;;;-145.18;100.00;46720.94;5022313;28;20045;-77
2022/12/20 07:58:18;;;;;;;6.20;2.70;;;;;;;-145.18;100.00;46724.84;5021694;28;20491;-77
2022/12/20 08:00:44;;;;;;;6.30;2.97;;;;;;;-145.18;100.00;46726.81;5000967;28;20498;-76
2022/12/20 08:03:21;;;;;;;4.10;2.53;;;;;;;-145.18;100.00;46722.91;5013248;28;20357;-76
2022/12/20 08:05:51;;;;;;;6.07;3.43;;;;;;;-145.18;100.00;46724.84;5014527;28;20506;-76
2022/12/20 08:08:17;;;;;;;5.77;2.60;;;;;;;-145.18;100.00;46726.81;5027639;28;20450;-76
2022/12/20 08:10:43;;;;;;;7.53;3.17;;;;;;;-145.18;100.00;46726.81;5019225;28;20076;-76
2022/12/20 08:13:09;;;;;;;6.83;2.73;;;;;;;-145.18;100.00;46726.81;5011334;28;20046;-76
2022/12/20 08:15:35;;;;;;;6.30;2.83;;;;;;;-145.18;100.00;46726.81;5019224;28;20034;-76
2022/12/20 08:18:01;;;;;;;4.77;2.23;;;;;;;-145.18;100.00;46724.84;5010434;28;20192;-76
2022/12/20 08:20:27;;;;;;;7.63;2.80;;;;;;;-145.18;100.00;46722.91;5015084;28;20577;-76
2022/12/20 08:22:52;;;;;;;11.37;3.43;;;;;;;-145.18;100.00;46726.81;4999602;28;20128;-75
2022/12/20 08:25:18;;;;;;;7.63;2.90;;;;;;;-145.18;100.00;46720.94;5020504;28;20107;-76
2022/12/20 08:27:43;;;;;;;9.70;2.27;;;;;;;-145.18;100.00;46726.81;5021038;28;20034;-75
2022/12/20 08:30:09;;;;;;;6.93;2.40;;;;;;;-145.18;100.00;46726.81;5018430;28;20037;-75
2022/12/20 08:32:35;;;;;;;4.33;2.23;;;;;;;-145.18;100.00;46728.75;5015473;28;20042;-75
2022/12/20 08:35:01;;;;;;;5.23;2.40;;;;;;;-145.18;100.00;46722.91;5018058;28;20033;-75
2022/12/20 08:37:26;;;;;;;5.47;2.30;;;;;;;-145.18;100.00;46726.81;5010604;28;20513;-75
2022/12/20 08:39:52;;;;;;;5.20;2.20;;;;;;;-145.18;100.00;46724.84;5015164;28;20066;-75
2022/12/20 08:42:17;;;;;;;7.07;2.60;;;;;;;-145.18;100.00;46722.91;5017705;28;20416;-75
2022/12/20 08:44:43;;;;;;;7.40;2.20;;;;;;;-145.18;100.00;46722.91;5019690;28;20088;-75
2022/12/20 08:47:09;;;;;;;5.13;2.47;;;;;;;-145.18;100.00;46720.94;4999603;28;20030;-75
2022/12/20 08:49:34;;;;;;;5.00;2.23;;;;;;;-145.18;100.00;46724.84;5020088;28;20041;-75
2022/12/20 08:52:00;;;;;;;5.83;2.20;;;;;;;-145.18;100.00;46724.84;5019151;28;20124;-75
2022/12/20 08:54:25;;;;;;;11.23;3.13;;;;;;;-145.18;100.00;46722.91;5012588;28;20095;-75
2022/12/20 08:56:51;;;;;;;8.90;2.60;;;;;;;-145.18;100.00;46717.03;5011056;28;20529;-75
2022/12/20 08:59:16;;;;;;;5.37;2.30;;;;;;;-145.18;100.00;46717.03;5017465;28;20064;-75
2022/12/20 09:01:42;;;;;;;8.10;3.00;;;;;;;-145.18;100.00;46711.19;5014886;28;20629;-74
2022/12/20 09:04:09;;;;;;;6.03;3.23;;;;;;;-145.18;100.00;46713.13;5015138;28;20054;-74
2022/12/20 09:06:35;;;;;;;11.00;2.97;;;;;;;-145.18;100.00;46717.03;5012637;28;20061;-75
2022/12/20 09:09:01;;;;;;;6.10;2.77;;;;;;;-145.18;100.00;46711.19;5019407;28;20103;-75
2022/12/20 09:11:27;;;;;;;8.30;3.17;;;;;;;-145.18;100.00;46713.13;5015332;28;20034;-75
2022/12/20 09:13:54;;;;;;;11.77;3.27;;;;;;;-145.18;100.00;46717.03;5017282;28;20041;-74
2022/12/20 09:16:22;;;;;;;10.30;3.00;;;;;;;-145.18;100.00;46715.09;5019680;28;20029;-75
2022/12/20 09:18:49;;;;;;;6.73;3.17;;;;;;;-145.18;100.00;46703.38;5012937;28;20041;-75
2022/12/20 09:21:15;;;;;;;10.07;3.07;;;;;;;-145.18;100.00;46699.47;5023730;28;20052;-74
2022/12/20 09:23:41;;;;;;;7.37;2.90;;;;;;;-145.18;100.00;46713.13;4999052;28;20644;-74
2022/12/20 09:26:10;;;;;;;7.00;3.23;;;;;;;-145.18;100.00;46697.50;5013178;28;20045;-74
2022/12/20 09:28:35;;;;;;;7.57;3.00;;;;;;;-145.18;100.00;46715.09;5019742;28;20069;-74
2022/12/20 09:31:04;;;;;;;6.70;3.20;;;;;;;-145.18;100.00;46697.50;5017331;28;20816;-74
2022/12/20 09:33:30;;;;;;;6.30;3.47;;;;;;;-145.18;100.00;46703.38;5027212;28;20033;-74
2022/12/20 09:35:57;;;;;;;6.97;3.67;;;;;;;-145.18;100.00;46697.50;5018015;28;20030;-74
2022/12/20 09:38:23;;;;;;;7.53;3.27;;;;;;;-145.18;100.00;46699.47;5012925;28;20037;-74
2022/12/20 09:40:51;;;;;;;6.07;3.20;;;;;;;-145.18;100.00;46705.31;5025550;28;20398;-74
2022/12/20 09:43:19;;;;;;;5.83;3.53;;;;;;;-145.18;100.00;46711.19;5014563;28;20508;-74
2022/12/20 09:45:46;;;;;;;8.40;3.37;;;;;;;-145.18;100.00;46711.19;5014503;28;20069;-74
2022/12/20 09:48:18;;;;;;;7.50;3.40;;;;;;;-145.18;100.00;46695.56;5018417;28;20053;-74
2022/12/20 09:51:03;;;;;;;7.77;3.10;;;;;;;-145.18;100.00;46705.31;5026539;28;20040;-73
2022/12/20 09:54:13;;;;;;;9.23;3.72;;;;;;;-145.18;100.00;46709.22;5032125;28;20595;-73
2022/12/20 09:57:01;;;;;;;8.27;3.90;;;;;;;-145.18;100.00;46691.66;5023444;28;20115;-73
2022/12/20 09:59:27;;;;;;;7.10;3.70;;;;;;;-145.18;100.00;46697.50;5031610;28;20858;-73
2022/12/20 10:01:53;;;;;;;11.73;3.97;;;;;;;-145.18;100.00;46707.28;5031994;28;20033;-73
2022/12/20 10:04:21;;;;;;;8.50;3.43;;;;;;;-145.18;100.00;46695.56;5031852;28;20029;-73
2022/12/20 10:07:17;;;;;;;8.33;3.70;;;;;;;-145.18;100.00;46693.59;5029347;28;20045;-74
2022/12/20 10:10:10;;;;;;;9.07;3.95;;;;;;;-145.18;100.00;46703.38;5012504;28;20048;-73
2022/12/20 10:13:09;;;;;;;9.87;5.13;;;;;;;-145.18;100.00;46709.22;5030796;28;20030;-73
2022/12/20 10:15:39;;;;;;;14.07;4.13;;;;;;;-145.18;100.00;46701.41;5035402;28;20041;-73
2022/12/20 10:18:38;;;;;;;10.10;3.90;;;;;;;-145.18;100.00;46699.47;5052353;28;20033;-73
2022/12/20 10:21:30;;;;;;;10.23;3.90;;;;;;;-145.18;100.00;46691.66;5052061;28;20502;-73
2022/12/20 10:24:09;;;;;;;7.53;4.37;;;;;;;-145.18;100.00;46699.47;5051846;28;20533;-73
2022/12/20 10:26:34;;;;;;;9.03;4.13;;;;;;;-145.18;100.00;46685.78;5026345;28;20045;-73
2022/12/20 10:29:00;;;;;;;6.57;3.77;;;;;;;-145.18;100.00;46699.47;5024757;28;20045;-73
2022/12/20 10:31:26;;;;;;;7.33;3.57;;;;;;;-145.18;100.00;46695.56;5032557;28;20033;-73
2022/12/20 10:33:51;;;;;;;8.27;4.30;;;;;;;-145.18;100.00;46689.69;5031904;28;20108;-73
2022/12/20 10:36:22;;;;;;;7.13;3.90;;;;;;;-145.18;100.00;46687.75;5032248;28;20374;-73
2022/12/20 10:38:53;;;;;;;6.30;4.00;;;;;;;-145.18;100.00;46711.19;5032144;28;20042;-73
2022/12/20 10:41:24;;;;;;;12.67;4.67;;;;;;;-145.18;100.00;46695.56;5032082;28;20030;-73
2022/12/20 10:43:57;;;;;;;8.47;4.43;;;;;;;-145.18;100.00;46707.28;5031577;28;20358;-73
2022/12/20 10:46:34;;;;;;;9.63;4.30;;;;;;;-145.18;100.00;46695.56;5032177;28;20041;-73
2022/12/20 10:49:21;;;;;;;10.00;4.10;;;;;;;-145.18;100.00;46689.69;5031672;28;20029;-73
2022/12/20 10:51:51;;;;;;;11.17;4.30;;;;;;;-145.18;100.00;46687.75;5031824;28;20068;-72
2022/12/20 10:54:38;;;;;;;7.67;3.90;;;;;;;-145.18;100.00;46695.56;5031742;28;20484;-73
2022/12/20 10:57:27;;;;;;;8.37;3.97;;;;;;;-145.18;100.00;46685.78;5026926;28;20382;-72
2022/12/20 11:00:00;;;;;;;7.47;4.53;;;;;;;-145.18;100.00;46693.59;5019246;28;20282;-72
2022/12/20 11:02:37;;;;;;;12.30;3.93;;;;;;;-145.18;100.00;46699.47;5021014;28;20120;-72
2022/12/20 11:05:23;;;;;;;7.70;4.27;;;;;;;-145.18;100.00;46689.69;5021763;28;20313;-72
2022/12/20 11:07:54;;;;;;;8.85;4.55;;;;;;;-145.18;100.00;46689.69;5018078;28;20128;-72
2022/12/20 11:10:23;;;;;;;7.50;4.30;;;;;;;-145.18;100.00;46695.56;5010696;28;20117;-72
2022/12/20 11:12:56;;;;;;;9.00;4.20;;;;;;;-145.18;100.00;46697.50;5011686;28;20034;-72
2022/12/20 11:15:28;;;;;;;12.07;4.53;;;;;;;-145.18;100.00;46691.66;5019544;28;20109;-72
2022/12/20 11:18:03;;;;;;;8.57;4.27;;;;;;;-145.18;100.00;46691.66;5018949;28;20033;-74
2022/12/20 11:20:29;;;;;;;;;;;;;;;-145.18;100.00;46691.66;5026427;28;20045;-74
2022/12/20 11:23:21;;;;;;;7.32;4.70;;;;;;;-145.18;100.00;46689.69;5024934;28;19925;-72
2022/12/20 11:26:34;;;;;;;8.63;4.80;;;;;;;-145.18;100.00;46687.75;5012051;28;20117;-72
2022/12/20 11:29:03;;;;;;;8.93;5.03;;;;;;;-145.18;100.00;46691.66;5015994;28;20088;-72
2022/12/20 11:31:50;;;;;;;13.83;4.70;;;;;;;-145.18;100.00;46685.78;5014083;28;20441;-72
2022/12/20 11:34:45;;;;;;;15.57;4.70;;;;;;;-145.18;100.00;46687.75;5005964;28;20740;-74